Portada
METAR-TAF:

METAR-TAF

Aeropuertos :

Cascaes, Portugal

latitud: 38-43-32N, longitud: 009-21-19W, altitud: 99 m

Observación

El informe se hizo hace 8 horas y 32 minutos, a las 20:00 UTC
Viento 12 kt del norte-noroeste, variando entre oeste-noroeste y norte
Temperatura 17°C
Humedad 72%
Presión 1016 hPa
Visibilidad 10 km o más
Escasas nubes a una altura de 2000 ft

METAR: LPCS 202000Z 33012KT 300V360 9999 FEW020 17/12 Q1016

Hora: 05:32 (04:32 UTC)


TAF: falta

Observaciones y pronósticos meteorológicos de más de 4000 aeropuertos (mensajes METAR y TAF).

Los puntos amarillos y rojos representan las estaciones disponibles.

Ponga el ratón en el punto deseado para ver el nombre de la estación.

Haga clic para ver las observaciones y los pronósticos meteorológicos.

Para cambiar el mapa : haga clic en los botones verdes con una cruz de color negro para hacer un zoom, en el botón verde con un guión para alejar o en las flechas verdes para mapas adyacentes.


METAR-TAF: